Weather History for Cherokee, IA

Change the Weather History Date:

Tuesday, August 27, 2013

  Actual Average Record
Temperature  
Mean Temperature 85 °F -  
Max Temperature 93 °F 81 °F 103 °F (1955)
Min Temperature 77 °F 57 °F 39 °F (1967)
Cooling Degree Days 20    
Growing Degree Days 35 (Base 50)    
Moisture  
Dew Point 73 °F    
Average Humidity 68    
Maximum Humidity 94    
Minimum Humidity 52    
Precipitation  
Precipitation 0.00 in - - ()
Sea Level Pressure  
Sea Level Pressure 29.89 in    
Wind  
Wind Speed 10 mph (SW)    
Max Wind Speed 15 mph    
Max Gust Speed 21 mph    
Visibility 9 miles    
Events      
Averages and records for this station are not official NWS values.
T = Trace of Precipitation, MM = Missing Value Source: NWS Daily Summary

Daily Weather History Graph

Daily Weather History Graph

Search for Another Location

Airport:

Trip Planner

Search our weather history database for the weather conditions in past years. The results will help you decide how hot, cold, wet, or windy it might be!

Date:

Astronomy

Aug. 27, 2013 Rise Set
Actual Time 6:41 AM CDT 8:04 PM CDT
Civil Twilight 6:12 AM CDT 8:33 PM CDT
Nautical Twilight 5:37 AM CDT 9:09 PM CDT
Astronomical Twilight 4:59 AM CDT 9:46 PM CDT
Moon 11:48 PM CDT (8/27) 1:51 PM CDT (8/27)
Length of Visible Light 14h 21m
Length of Day
13h 22m
Waning Gibbous, 57% of the Moon is Illuminated
Aug 27
Waning Gibbous
Aug 28
Last Quarter
Sep 5
New
Sep 12
First Quarter
Sep 19
Full

Hourly Weather History & Observations

Time (CDT) Temp. Heat Index Dew Point Humidity Pressure Visibility Wind Dir Wind Speed Gust Speed Precip Events Conditions
12:15 AM 81.1 °F 86.0 °F 72.9 °F 76% 29.92 in 3.0 mi South 10.4 mph - N/A   Haze
12:35 AM 81.0 °F 85.4 °F 72.5 °F 75% 29.92 in 2.5 mi SSW 10.4 mph - N/A   Haze
12:55 AM 80.6 °F 84.7 °F 72.1 °F 75% 29.92 in 1.5 mi South 9.2 mph - N/A   Haze
1:15 AM 81.0 °F 85.1 °F 71.6 °F 73% 29.92 in 1.5 mi South 9.2 mph - N/A   Haze
1:35 AM 80.6 °F 84.4 °F 71.2 °F 73% 29.91 in 3.0 mi SSW 10.4 mph - N/A   Haze
1:55 AM 80.6 °F 84.2 °F 70.9 °F 72% 29.91 in 1.5 mi South 10.4 mph - N/A   Haze
2:15 AM 80.1 °F 83.4 °F 70.7 °F 73% 29.91 in 4.0 mi SSW 10.4 mph - N/A   Haze
2:35 AM 80.1 °F 83.3 °F 70.2 °F 72% 29.90 in 4.0 mi SSW 10.4 mph - N/A   Haze
2:55 AM 79.7 °F - 70.0 °F 72% 29.90 in 5.0 mi SSW 10.4 mph - N/A   Haze
3:15 AM 79.9 °F - 69.6 °F 71% 29.90 in 5.0 mi SSW 8.1 mph - N/A   Haze
3:35 AM 79.9 °F - 69.1 °F 69% 29.90 in 10.0 mi SSW 10.4 mph - N/A   Clear
3:55 AM 80.6 °F 83.5 °F 68.7 °F 67% 29.89 in 7.0 mi SSW 11.5 mph 17.3 mph N/A   Clear
4:15 AM 80.4 °F 83.2 °F 68.5 °F 67% 29.89 in 10.0 mi SSW 10.4 mph - N/A   Clear
4:35 AM 80.2 °F 83.0 °F 68.5 °F 67% 29.89 in 10.0 mi SSW 10.4 mph 16.1 mph N/A   Clear
4:55 AM 79.9 °F - 68.5 °F 68% 29.89 in 10.0 mi SSW 11.5 mph - N/A   Clear
5:15 AM 79.7 °F - 68.5 °F 69% 29.89 in 10.0 mi SSW 12.7 mph 17.3 mph N/A   Clear
5:35 AM 79.5 °F - 68.4 °F 69% 29.88 in 10.0 mi SSW 15.0 mph 20.7 mph N/A   Clear
5:55 AM 79.0 °F - 68.2 °F 69% 29.88 in 10.0 mi SSW 11.5 mph 19.6 mph N/A   Clear
6:15 AM 78.6 °F - 68.2 °F 70% 29.88 in 10.0 mi SSW 10.4 mph 17.3 mph N/A   Clear
6:35 AM 78.1 °F - 68.2 °F 71% 29.88 in 10.0 mi SSW 10.4 mph - N/A   Clear
6:55 AM 77.7 °F - 68.2 °F 72% 29.89 in 10.0 mi SSW 10.4 mph 16.1 mph N/A   Clear
7:15 AM 77.4 °F - 68.4 °F 74% 29.89 in 10.0 mi SSW 10.4 mph - N/A   Clear
7:35 AM 78.1 °F - 68.4 °F 72% 29.89 in 10.0 mi SSW 9.2 mph 17.3 mph N/A   Unknown
7:55 AM 78.4 °F - 68.5 °F 72% 29.89 in 10.0 mi SSW 8.1 mph 16.1 mph N/A   Clear
8:15 AM 79.3 °F - 68.7 °F 70% 29.89 in 10.0 mi SSW 12.7 mph 16.1 mph N/A   Clear
8:35 AM 80.4 °F 83.2 °F 68.5 °F 67% 29.89 in 10.0 mi SSW 11.5 mph 17.3 mph N/A   Clear
8:55 AM 81.5 °F 84.6 °F 68.5 °F 65% 29.89 in 10.0 mi SSW 11.5 mph 19.6 mph N/A   Clear
9:15 AM 82.4 °F 85.8 °F 68.9 °F 64% 29.89 in 10.0 mi SSW 13.8 mph 18.4 mph N/A   Clear
9:35 AM 83.3 °F 86.9 °F 68.9 °F 62% 29.89 in 10.0 mi SW 15.0 mph 19.6 mph N/A   Clear
9:55 AM 84.0 °F 87.3 °F 68.4 °F 59% 29.90 in 10.0 mi SW 13.8 mph 18.4 mph N/A   Clear
10:15 AM 85.1 °F 89.1 °F 69.4 °F 59% 29.90 in 10.0 mi SW 10.4 mph 19.6 mph N/A   Clear
10:35 AM 85.1 °F 89.1 °F 69.3 °F 59% 29.90 in 10.0 mi SW 10.4 mph 18.4 mph N/A   Clear
10:55 AM 86.2 °F 91.4 °F 70.7 °F 60% 29.90 in 10.0 mi SW 11.5 mph 16.1 mph N/A   Clear
11:15 AM 86.7 °F 91.4 °F 69.8 °F 57% 29.90 in 10.0 mi SW 11.5 mph - N/A   Clear
11:35 AM 88.0 °F 93.4 °F 70.7 °F 56% 29.90 in 10.0 mi SW 15.0 mph - N/A   Clear
11:55 AM 88.0 °F 92.9 °F 70.0 °F 55% 29.90 in 10.0 mi SW 11.5 mph - N/A   Clear
12:15 PM 89.1 °F 94.6 °F 70.5 °F 54% 29.90 in 10.0 mi SW 13.8 mph - N/A   Clear
12:35 PM 89.8 °F 95.6 °F 70.5 °F 53% 29.89 in 10.0 mi SW 15.0 mph 19.6 mph N/A   Clear
12:55 PM 90.7 °F 96.9 °F 70.9 °F 52% 29.89 in 10.0 mi SW 10.4 mph 19.6 mph N/A   Clear
1:15 PM 91.4 °F 98.4 °F 71.6 °F 52% 29.89 in 10.0 mi WSW 8.1 mph 17.3 mph N/A   Clear
1:35 PM 90.9 °F 98.9 °F 72.5 °F 55% 29.89 in 10.0 mi SW 10.4 mph - N/A   Clear
1:55 PM 91.8 °F 100.3 °F 73.2 °F 54% 29.88 in 10.0 mi WSW 10.4 mph - N/A   Clear
2:15 PM 92.5 °F 100.7 °F 72.7 °F 52% 29.88 in 10.0 mi SW 11.5 mph - N/A   Clear
2:35 PM 92.8 °F 102.8 °F 73.8 °F 54% 29.88 in 10.0 mi WSW 8.1 mph - N/A   Clear
2:55 PM 92.8 °F 103.4 °F 74.5 °F 55% 29.88 in 10.0 mi SW 10.4 mph - N/A   Clear
3:15 PM 93.4 °F 103.4 °F 73.9 °F 53% 29.88 in 10.0 mi WSW 11.5 mph - N/A   Clear
3:35 PM 93.2 °F 105.0 °F 75.2 °F 56% 29.88 in 10.0 mi SW 9.2 mph - N/A   Clear
3:55 PM 93.6 °F 106.7 °F 76.5 °F 57% 29.88 in 10.0 mi SW 9.2 mph - N/A   Clear
4:15 PM 93.4 °F 105.5 °F 75.7 °F 56% 29.88 in 10.0 mi SW 11.5 mph - N/A   Clear
4:35 PM 93.7 °F 106.4 °F 75.9 °F 56% 29.88 in 10.0 mi SW 10.4 mph - N/A   Clear
4:55 PM 93.4 °F 104.8 °F 75.2 °F 55% 29.88 in 10.0 mi SW 11.5 mph - N/A   Clear
5:15 PM 93.2 °F 105.0 °F 75.6 °F 56% 29.88 in 10.0 mi SW 10.4 mph - N/A   Clear
5:35 PM 93.2 °F 105.0 °F 75.4 °F 56% 29.88 in 10.0 mi SW 11.5 mph 16.1 mph N/A   Clear
5:55 PM 92.7 °F 103.7 °F 75.0 °F 56% 29.88 in 10.0 mi SW 9.2 mph - N/A   Clear
6:15 PM 91.8 °F 104.1 °F 76.1 °F 60% 29.88 in 10.0 mi SW 9.2 mph - N/A   Clear
6:35 PM 91.4 °F 105.1 °F 77.0 °F 63% 29.88 in 10.0 mi SW 6.9 mph - N/A   Clear
6:55 PM 90.5 °F 104.0 °F 77.4 °F 65% 29.88 in 10.0 mi SW 6.9 mph - N/A   Clear
7:15 PM 89.6 °F 104.1 °F 78.1 °F 69% 29.88 in 10.0 mi SSW 5.8 mph - N/A   Clear
7:35 PM 88.7 °F 101.6 °F 77.5 °F 69% 29.88 in 10.0 mi WSW 4.6 mph - N/A   Clear
7:55 PM 87.4 °F 100.3 °F 77.9 °F 73% 29.88 in 10.0 mi Calm Calm - N/A   Clear
8:15 PM 85.6 °F 97.7 °F 77.9 °F 78% 29.89 in 10.0 mi Calm Calm - N/A   Clear
8:35 PM 84.7 °F 96.5 °F 78.4 °F 81% 29.89 in 10.0 mi Calm Calm - N/A   Clear
8:55 PM 82.9 °F 93.8 °F 79.2 °F 88% 29.89 in 10.0 mi Calm Calm - N/A   Clear
9:15 PM 81.7 °F 90.0 °F 77.7 °F 88% 29.90 in 10.0 mi Calm Calm - N/A   Clear
9:35 PM 81.5 °F 89.5 °F 77.5 °F 88% 29.91 in 10.0 mi Calm Calm - N/A   Clear
9:55 PM 79.3 °F - 76.5 °F 91% 29.91 in 10.0 mi Calm Calm - N/A   Clear
10:15 PM 79.2 °F - 77.4 °F 94% 29.92 in 7.0 mi Calm Calm - N/A   Clear
10:35 PM 79.3 °F - 77.4 °F 94% 29.92 in 10.0 mi Calm Calm - N/A   Clear
10:55 PM 78.8 °F - 76.5 °F 92% 29.93 in 10.0 mi Calm Calm - N/A   Clear
11:15 PM 79.7 °F - 77.0 °F 91% 29.92 in 10.0 mi Calm Calm - N/A   Clear
11:35 PM 77.5 °F - 75.4 °F 93% 29.92 in 10.0 mi Calm Calm - N/A   Clear
11:55 PM 77.4 °F - 75.2 °F 93% 29.92 in 10.0 mi Calm Calm - N/A   Clear